Thunder radar more information blitzortung!


Löydät sääaseman tiedot myös:

European Weather Network

Finland Weather Exchange

Weather Underground

AWEKAS



Weather Underground säähistoriasivu

Päivittäin yhteenveto Heinäkuu 7, 2017 Yksiköt:  Metriset    Englantilaiset   Molemmat
« Edellinen Päivä
Seuraava Päivä »
Päivittäin Viikoittain Kuukausittain Vuosittain Mukautettu
  Korkea: Matala: Keskiarvo:
Lämpötila: -17.8 °C -15.2 °C -10.3 °C
Kastepiste: -17.8 °C -15.7 °C -13.7 °C
Kosteus: Humidity % 41 % 69 %
Tuulen nopeus: 0 km/h 0 km/h 0.5 km/h
Tuulenpuuska: 0 km/h - -
Tuuli:- - West
Ilmanpaine: 0 hPa 34235.8 hPa -
Sade: 0 mm    
Historical Graphs
 
 
Taulukkotiedot Heinäkuu 7, 2017
Aika Lämpötila Kastepiste Ilmanpaine Tuuli Tuulen nopeus Tuulenpuuska Kosteus Sademäärä (tunneittain)
-17.8 °C -17.8 °C 0 hPa Calm     Humidity % 0 mm
00:00 -13.3 °C -14.2 °C 34293.4 hPa Calm     89 % 0 mm
00:15 -13.4 °C -14.4 °C 34293.4 hPa Calm     89 % 0 mm
00:30 -13.7 °C -14.6 °C 34293.4 hPa Calm     89 % 0 mm
00:45 -13.8 °C -14.7 °C 34293.4 hPa Calm     90 % 0 mm
01:00 -14.1 °C -14.9 °C 34293.4 hPa Calm     91 % 0 mm
01:15 -14.4 °C -15.1 °C 34293.4 hPa Calm     91 % 0 mm
01:30 -14.6 °C -15.2 °C 34293.4 hPa Calm     92 % 0 mm
01:45 -14.8 °C -15.5 °C 34293.4 hPa Calm     92 % 0 mm
02:00 -15.1 °C -15.6 °C 34293.4 hPa Calm     93 % 0 mm
02:15 -15.2 °C -15.7 °C 34293.4 hPa Calm     94 % 0 mm
02:30 -15.1 °C -15.6 °C 34293.4 hPa Calm     94 % 0 mm
02:45 -15.1 °C -15.4 °C 34293.4 hPa Calm     95 % 0 mm
03:00 -15.1 °C -15.5 °C 34293.4 hPa Calm     94 % 0 mm
03:15 -14.9 °C -15.4 °C 34293.4 hPa Calm     95 % 0 mm
03:30 -14.9 °C -15.3 °C 34293.4 hPa Calm     95 % 0 mm
03:45 -15 °C -15.4 °C 34293.4 hPa Calm     95 % 0 mm
04:00 -15.1 °C -15.6 °C 34293.4 hPa Calm     95 % 0 mm
04:15 -15.1 °C -15.5 °C 34293.4 hPa Calm     95 % 0 mm
04:30 -15.1 °C -15.3 °C 34293.4 hPa Calm   5.1 km/h 96 % 0 mm
04:45 -14.7 °C -15 °C 34293.4 hPa Calm   5.1 km/h 96 % 0 mm
05:00 -14.4 °C -14.8 °C 34279.9 hPa Calm   7.7 km/h 96 % 0 mm
05:15 -14.3 °C -14.7 °C 34279.9 hPa Calm   7.7 km/h 96 % 0 mm
05:30 -14.2 °C -14.6 °C 34279.9 hPa Calm   5.1 km/h 96 % 0 mm
05:45 -14.2 °C -14.5 °C 34279.9 hPa Calm     96 % 0 mm
06:00 -14 °C -14.3 °C 34279.9 hPa Calm   7.7 km/h 96 % 0 mm
06:15 -13.8 °C -14 °C 34279.9 hPa Calm   7.7 km/h 97 % 0 mm
06:30 -13.5 °C -13.7 °C 34279.9 hPa Calm   10.3 km/h 97 % 0 mm
06:45 -13 °C -13.3 °C 34279.9 hPa SSW 2.6 km/h 10.3 km/h 97 % 0 mm
07:00 -12.8 °C -13.2 °C 34279.9 hPa Calm   7.7 km/h 96 % 0 mm
07:15 -12.6 °C -13 °C 34279.9 hPa Calm   7.7 km/h 95 % 0 mm
07:30 -12.3 °C -12.7 °C 34279.9 hPa Calm   7.7 km/h 95 % 0 mm
07:45 -11.9 °C -12.4 °C 34279.9 hPa Calm   5.1 km/h 94 % 0 mm
08:00 -11.7 °C -12.3 °C 34279.9 hPa Calm     93 % 0 mm
08:15 -11.4 °C -12.1 °C 34279.9 hPa Calm     93 % 0 mm
08:30 -11.2 °C -11.9 °C 34279.9 hPa Calm     92 % 0 mm
08:45 -10.7 °C -11.6 °C 34279.9 hPa Calm   10.3 km/h 90 % 0 mm
09:00 -10.3 °C -11.3 °C 34279.9 hPa Calm     89 % 0 mm
09:15 -9.8 °C -11.2 °C 34279.9 hPa Calm   2.6 km/h 85 % 0 mm
09:30 -9.4 °C -11.2 °C 34279.9 hPa Calm   2.6 km/h 81 % 0 mm
09:45 -8.9 °C -10.8 °C 34279.9 hPa Calm     80 % 0 mm
10:00 -8.6 °C -10.7 °C 34279.9 hPa Calm   2.6 km/h 79 % 0 mm
10:15 -8.5 °C -10.8 °C 34279.9 hPa Calm   5.1 km/h 77 % 0 mm
10:30 -8.2 °C -10.8 °C 34279.9 hPa Calm     74 % 0 mm
10:45 -7.9 °C -11.6 °C 34279.9 hPa Calm   10.3 km/h 65 % 0 mm
11:00 -7.7 °C -11.9 °C 34279.9 hPa Calm   10.3 km/h 61 % 0 mm
11:15 -7.4 °C -12.7 °C 34279.9 hPa WNW 2.6 km/h 12.9 km/h 54 % 0 mm
11:30 -8.2 °C -13.4 °C 34279.9 hPa NW 2.6 km/h 10.3 km/h 54 % 0 mm
11:45 -8.2 °C -13.7 °C 34279.9 hPa Calm   15.6 km/h 52 % 0 mm
12:00 -7.8 °C -13.9 °C 34269.7 hPa NW 5.1 km/h 15.6 km/h 49 % 0 mm
12:15 -7.9 °C -14.6 °C 34269.7 hPa WNW 2.6 km/h 18.2 km/h 45 % 0 mm
12:30 -7.3 °C -14.1 °C 34269.7 hPa NNE 2.6 km/h 15.6 km/h 45 % 0 mm
12:45 -7.4 °C -14.4 °C 34269.7 hPa NW 2.6 km/h 10.3 km/h 44 % 0 mm
13:00 -7.1 °C -13.4 °C 34269.7 hPa WNW 2.6 km/h 15.6 km/h 48 % 0 mm
13:15 -7.6 °C -14.2 °C 34269.7 hPa Calm   10.3 km/h 46 % 0 mm
13:30 -7.2 °C -14.6 °C 34269.7 hPa WNW 5.1 km/h 15.6 km/h 42 % 0 mm
13:45 -7.3 °C -13.9 °C 34269.7 hPa NW 2.6 km/h 15.6 km/h 46 % 0 mm
14:00 -7.5 °C -13.2 °C 34269.7 hPa NW 2.6 km/h 10.3 km/h 51 % 0 mm
14:15 -7 °C -14.4 °C 34269.7 hPa NW 2.6 km/h 15.6 km/h 42 % 0 mm
14:30 -6.5 °C -13.7 °C 34256.2 hPa Calm   7.7 km/h 43 % 0 mm
14:45 -6.7 °C -13.7 °C 34269.7 hPa Calm   12.9 km/h 44 % 0 mm
15:00 -7.1 °C -13.8 °C 34269.7 hPa NW 2.6 km/h 15.6 km/h 45 % 0 mm
15:15 -7.2 °C -13.6 °C 34269.7 hPa Calm   5.1 km/h 47 % 0 mm
15:30 -7.4 °C -14.1 °C 34269.7 hPa Calm   2.6 km/h 46 % 0 mm
15:45 -6.8 °C -14.1 °C 34256.2 hPa NW 5.1 km/h 15.6 km/h 43 % 0 mm
16:00 -6.7 °C -14.3 °C 34256.2 hPa Calm   7.7 km/h 41 % 0 mm
16:15 -6.8 °C -14.4 °C 34256.2 hPa Calm   2.6 km/h 41 % 0 mm
16:30 -7 °C -13.3 °C 34256.2 hPa Calm   7.7 km/h 48 % 0 mm
16:45 -7.2 °C -12.6 °C 34256.2 hPa Calm   5.1 km/h 53 % 0 mm
17:00 -7.3 °C -13.3 °C 34256.2 hPa Calm   2.6 km/h 50 % 0 mm
17:15 -7.6 °C -13.1 °C 34256.2 hPa Calm     52 % 0 mm
17:30 -7.6 °C -12.6 °C 34246 hPa Calm     56 % 0 mm
17:45 -7.4 °C -13 °C 34256.2 hPa Calm     52 % 0 mm
18:00 -7.3 °C -12.7 °C 34246 hPa Calm     53 % 0 mm
18:15 -7.2 °C -13.1 °C 34246 hPa Calm     50 % 0 mm
18:30 -7.3 °C -12.7 °C 34246 hPa Calm     53 % 0 mm
18:45 -7.4 °C -12.6 °C 34246 hPa Calm     55 % 0 mm
19:00 -7.3 °C -12.6 °C 34246 hPa Calm   2.6 km/h 54 % 0 mm
19:15 -7.1 °C -13.6 °C 34246 hPa Calm   2.6 km/h 47 % 0 mm
19:30 -7 °C -13.8 °C 34246 hPa Calm   2.6 km/h 45 % 0 mm
19:45 -7 °C -13.8 °C 34246 hPa Calm   5.1 km/h 45 % 0 mm
20:00 -6.9 °C -14.1 °C 34246 hPa Calm   2.6 km/h 43 % 0 mm
20:15 -6.9 °C -13.9 °C 34235.8 hPa Calm   2.6 km/h 44 % 0 mm
20:30 -7.3 °C -14.1 °C 34235.8 hPa Calm   7.7 km/h 45 % 0 mm
20:45 -7.4 °C -14.3 °C 34235.8 hPa Calm   2.6 km/h 44 % 0 mm
21:00 -7.7 °C -14.1 °C 34246 hPa Calm   5.1 km/h 47 % 0 mm
21:15 -8 °C -14.6 °C 34246 hPa Calm     46 % 0 mm
21:30 -8.3 °C -14.4 °C 34246 hPa Calm     48 % 0 mm
21:45 -8.5 °C -13.1 °C 34246 hPa Calm     58 % 0 mm
22:00 -8.8 °C -12.8 °C 34246 hPa Calm     63 % 0 mm
22:15 -9.3 °C -12.8 °C 34246 hPa Calm     66 % 0 mm
22:30 -9.9 °C -13.1 °C 34246 hPa Calm     69 % 0 mm
22:45 -10.4 °C -13.1 °C 34246 hPa Calm     73 % 0 mm
23:00 -10.9 °C -13.3 °C 34256.2 hPa Calm     75 % 0 mm
23:30 -11.7 °C -13.7 °C 34256.2 hPa Calm     78 % 0 mm
23:45 -11.9 °C -13.7 °C 34256.2 hPa Calm     81 % 0 mm
Esan sääasema
Terveisin Weather Underground - 2.75 mb

Alkuperäinen skripti  Jim McMurry - jmcmurry@mwt.net Sovitettu myös templatelle  Wim van der Kuil - Leuven-Template.eu

Laitteet joita käytämme:

Sääasema
Davis VP2

Sääasemaohjelma
Cumulus

Sääaseman tietokone
Asus EeePC

Palveluntarjoaja
Suncomet

Davis VP2

Cumulus

Asus EeePC

Suncomet